sensor_id;sensor_type;location;lat;lon;timestamp;temperature;humidity
57833;DHT22;43667;53.036;6.740;2022-12-18T00:01:31;-3.30;99.90
57833;DHT22;43667;53.036;6.740;2022-12-18T00:03:57;-3.30;99.90
57833;DHT22;43667;53.036;6.740;2022-12-18T00:06:24;-3.40;99.90
57833;DHT22;43667;53.036;6.740;2022-12-18T00:08:50;-3.40;99.90
57833;DHT22;43667;53.036;6.740;2022-12-18T00:11:24;-3.40;99.90
57833;DHT22;43667;53.036;6.740;2022-12-18T00:13:51;-3.40;99.90
57833;DHT22;43667;53.036;6.740;2022-12-18T00:16:19;-3.40;99.90
57833;DHT22;43667;53.036;6.740;2022-12-18T00:18:48;-3.40;99.90
57833;DHT22;43667;53.036;6.740;2022-12-18T00:21:14;-3.40;99.90
57833;DHT22;43667;53.036;6.740;2022-12-18T00:23:42;-3.40;99.90
57833;DHT22;43667;53.036;6.740;2022-12-18T00:26:12;-3.40;99.90
57833;DHT22;43667;53.036;6.740;2022-12-18T00:28:38;-3.40;99.90
57833;DHT22;43667;53.036;6.740;2022-12-18T00:31:06;-3.40;99.90
57833;DHT22;43667;53.036;6.740;2022-12-18T00:33:32;-3.40;99.90
57833;DHT22;43667;53.036;6.740;2022-12-18T00:36:20;-3.40;99.90
57833;DHT22;43667;53.036;6.740;2022-12-18T00:38:46;-3.40;99.90
57833;DHT22;43667;53.036;6.740;2022-12-18T00:41:14;-3.40;99.90
57833;DHT22;43667;53.036;6.740;2022-12-18T00:44:00;-3.50;99.90
57833;DHT22;43667;53.036;6.740;2022-12-18T00:46:26;-3.50;99.90
57833;DHT22;43667;53.036;6.740;2022-12-18T00:48:51;-3.60;99.90
57833;DHT22;43667;53.036;6.740;2022-12-18T00:51:17;-3.60;99.90
57833;DHT22;43667;53.036;6.740;2022-12-18T00:53:42;-3.60;99.90
57833;DHT22;43667;53.036;6.740;2022-12-18T00:56:08;-3.60;99.90
57833;DHT22;43667;53.036;6.740;2022-12-18T00:58:33;-3.60;99.90
57833;DHT22;43667;53.036;6.740;2022-12-18T01:04:02;-3.60;99.90
57833;DHT22;43667;53.036;6.740;2022-12-18T01:06:28;-3.70;99.90
57833;DHT22;43667;53.036;6.740;2022-12-18T01:08:54;-3.70;99.90
57833;DHT22;43667;53.036;6.740;2022-12-18T01:11:20;-3.70;99.90
57833;DHT22;43667;53.036;6.740;2022-12-18T01:13:46;-3.70;99.90
57833;DHT22;43667;53.036;6.740;2022-12-18T01:16:14;-3.70;99.90
57833;DHT22;43667;53.036;6.740;2022-12-18T01:18:40;-3.70;99.90
57833;DHT22;43667;53.036;6.740;2022-12-18T01:21:07;-3.70;99.90
57833;DHT22;43667;53.036;6.740;2022-12-18T01:23:33;-3.70;99.90
57833;DHT22;43667;53.036;6.740;2022-12-18T01:26:07;-3.70;99.90
57833;DHT22;43667;53.036;6.740;2022-12-18T01:28:33;-3.70;99.90
57833;DHT22;43667;53.036;6.740;2022-12-18T01:31:10;-3.70;99.90
57833;DHT22;43667;53.036;6.740;2022-12-18T01:33:35;-3.70;99.90
57833;DHT22;43667;53.036;6.740;2022-12-18T01:36:01;-3.70;99.90
57833;DHT22;43667;53.036;6.740;2022-12-18T01:38:28;-3.70;99.90
57833;DHT22;43667;53.036;6.740;2022-12-18T01:40:59;-3.80;99.90
57833;DHT22;43667;53.036;6.740;2022-12-18T01:43:53;-3.80;99.90
57833;DHT22;43667;53.036;6.740;2022-12-18T01:46:21;-3.80;99.90
57833;DHT22;43667;53.036;6.740;2022-12-18T01:48:54;-3.90;99.90
57833;DHT22;43667;53.036;6.740;2022-12-18T01:51:22;-3.90;99.90
57833;DHT22;43667;53.036;6.740;2022-12-18T01:53:48;-4.00;99.90
57833;DHT22;43667;53.036;6.740;2022-12-18T01:56:16;-4.00;99.90
57833;DHT22;43667;53.036;6.740;2022-12-18T01:59:00;-4.00;99.90
57833;DHT22;43667;53.036;6.740;2022-12-18T02:01:29;-4.10;99.90
57833;DHT22;43667;53.036;6.740;2022-12-18T02:03:56;-4.20;99.90
57833;DHT22;43667;53.036;6.740;2022-12-18T02:06:34;-4.10;99.90
57833;DHT22;43667;53.036;6.740;2022-12-18T02:09:11;-4.20;99.90
57833;DHT22;43667;53.036;6.740;2022-12-18T02:14:28;-4.30;99.90
57833;DHT22;43667;53.036;6.740;2022-12-18T02:28:09;-4.40;99.90
57833;DHT22;43667;53.036;6.740;2022-12-18T02:30:37;-4.40;99.90
57833;DHT22;43667;53.036;6.740;2022-12-18T02:33:05;-4.50;99.90
57833;DHT22;43667;53.036;6.740;2022-12-18T02:35:32;-4.50;99.90
57833;DHT22;43667;53.036;6.740;2022-12-18T02:37:59;-4.50;99.90
57833;DHT22;43667;53.036;6.740;2022-12-18T02:40:27;-4.60;99.90
57833;DHT22;43667;53.036;6.740;2022-12-18T02:42:53;-4.60;99.90
57833;DHT22;43667;53.036;6.740;2022-12-18T02:45:18;-4.60;99.90
57833;DHT22;43667;53.036;6.740;2022-12-18T02:47:47;-4.60;99.90
57833;DHT22;43667;53.036;6.740;2022-12-18T02:50:16;-4.70;99.90
57833;DHT22;43667;53.036;6.740;2022-12-18T02:53:10;-4.70;99.90
57833;DHT22;43667;53.036;6.740;2022-12-18T02:56:04;-4.70;99.90
57833;DHT22;43667;53.036;6.740;2022-12-18T02:58:44;-4.80;99.90
57833;DHT22;43667;53.036;6.740;2022-12-18T03:01:21;-4.80;99.90
57833;DHT22;43667;53.036;6.740;2022-12-18T03:04:00;-4.80;99.90
57833;DHT22;43667;53.036;6.740;2022-12-18T03:06:31;-4.80;99.90
57833;DHT22;43667;53.036;6.740;2022-12-18T03:09:01;-4.80;99.90
57833;DHT22;43667;53.036;6.740;2022-12-18T03:11:29;-4.90;99.90
57833;DHT22;43667;53.036;6.740;2022-12-18T03:14:19;-4.80;99.90
57833;DHT22;43667;53.036;6.740;2022-12-18T03:16:48;-4.90;99.90
57833;DHT22;43667;53.036;6.740;2022-12-18T03:19:21;-4.90;99.90
57833;DHT22;43667;53.036;6.740;2022-12-18T03:21:53;-4.90;99.90
57833;DHT22;43667;53.036;6.740;2022-12-18T03:24:20;-4.90;99.90
57833;DHT22;43667;53.036;6.740;2022-12-18T03:26:50;-4.90;99.90
57833;DHT22;43667;53.036;6.740;2022-12-18T03:29:38;-5.00;99.90
57833;DHT22;43667;53.036;6.740;2022-12-18T03:32:09;-5.00;99.90
57833;DHT22;43667;53.036;6.740;2022-12-18T03:34:38;-5.00;99.90
57833;DHT22;43667;53.036;6.740;2022-12-18T03:37:05;-5.00;99.90
57833;DHT22;43667;53.036;6.740;2022-12-18T03:39:30;-5.00;99.90
57833;DHT22;43667;53.036;6.740;2022-12-18T03:42:07;-5.00;99.90
57833;DHT22;43667;53.036;6.740;2022-12-18T03:47:24;-5.00;99.90
57833;DHT22;43667;53.036;6.740;2022-12-18T03:52:51;-5.10;99.90
57833;DHT22;43667;53.036;6.740;2022-12-18T03:55:19;-5.10;99.90
57833;DHT22;43667;53.036;6.740;2022-12-18T03:57:47;-5.10;99.90
57833;DHT22;43667;53.036;6.740;2022-12-18T04:00:16;-5.10;99.90
57833;DHT22;43667;53.036;6.740;2022-12-18T04:02:50;-5.10;99.90
57833;DHT22;43667;53.036;6.740;2022-12-18T04:05:17;-5.10;99.90
57833;DHT22;43667;53.036;6.740;2022-12-18T04:07:45;-5.20;99.90
57833;DHT22;43667;53.036;6.740;2022-12-18T04:10:12;-5.10;99.90
57833;DHT22;43667;53.036;6.740;2022-12-18T04:12:38;-5.20;99.90
57833;DHT22;43667;53.036;6.740;2022-12-18T04:15:05;-5.20;99.90
57833;DHT22;43667;53.036;6.740;2022-12-18T04:17:30;-5.20;99.90
57833;DHT22;43667;53.036;6.740;2022-12-18T04:19:56;-5.20;99.90
57833;DHT22;43667;53.036;6.740;2022-12-18T04:22:22;-5.20;99.90
57833;DHT22;43667;53.036;6.740;2022-12-18T04:24:47;-5.20;99.90
57833;DHT22;43667;53.036;6.740;2022-12-18T04:27:13;-5.30;99.90
57833;DHT22;43667;53.036;6.740;2022-12-18T04:29:39;-5.30;99.90
57833;DHT22;43667;53.036;6.740;2022-12-18T04:32:05;-5.30;99.90
57833;DHT22;43667;53.036;6.740;2022-12-18T04:34:30;-5.30;99.90
57833;DHT22;43667;53.036;6.740;2022-12-18T04:36:56;-5.40;99.90
57833;DHT22;43667;53.036;6.740;2022-12-18T04:39:22;-5.40;99.90
57833;DHT22;43667;53.036;6.740;2022-12-18T04:41:47;-5.40;99.90
57833;DHT22;43667;53.036;6.740;2022-12-18T04:44:13;-5.40;99.90
57833;DHT22;43667;53.036;6.740;2022-12-18T04:46:39;-5.40;99.90
57833;DHT22;43667;53.036;6.740;2022-12-18T04:49:04;-5.50;99.90
57833;DHT22;43667;53.036;6.740;2022-12-18T04:51:30;-5.50;99.90
57833;DHT22;43667;53.036;6.740;2022-12-18T04:53:56;-5.50;99.90
57833;DHT22;43667;53.036;6.740;2022-12-18T04:56:22;-5.50;99.90
57833;DHT22;43667;53.036;6.740;2022-12-18T04:58:47;-5.50;99.90
57833;DHT22;43667;53.036;6.740;2022-12-18T05:01:14;-5.50;99.90
57833;DHT22;43667;53.036;6.740;2022-12-18T05:03:40;-5.50;99.90
57833;DHT22;43667;53.036;6.740;2022-12-18T05:06:06;-5.50;99.90
57833;DHT22;43667;53.036;6.740;2022-12-18T05:08:33;-5.60;99.90
57833;DHT22;43667;53.036;6.740;2022-12-18T05:11:18;-5.60;99.90
57833;DHT22;43667;53.036;6.740;2022-12-18T05:13:45;-5.60;99.90
57833;DHT22;43667;53.036;6.740;2022-12-18T05:16:11;-5.60;99.90
57833;DHT22;43667;53.036;6.740;2022-12-18T05:18:37;-5.60;99.90
57833;DHT22;43667;53.036;6.740;2022-12-18T05:21:03;-5.70;99.90
57833;DHT22;43667;53.036;6.740;2022-12-18T05:23:29;-5.70;99.90
57833;DHT22;43667;53.036;6.740;2022-12-18T05:25:57;-5.70;99.90
57833;DHT22;43667;53.036;6.740;2022-12-18T05:28:26;-5.70;99.90
57833;DHT22;43667;53.036;6.740;2022-12-18T05:30:57;-5.80;99.90
57833;DHT22;43667;53.036;6.740;2022-12-18T05:33:24;-5.70;99.90
57833;DHT22;43667;53.036;6.740;2022-12-18T05:35:58;-5.80;99.90
57833;DHT22;43667;53.036;6.740;2022-12-18T05:38:25;-5.80;99.90
57833;DHT22;43667;53.036;6.740;2022-12-18T05:40:52;-5.80;99.90
57833;DHT22;43667;53.036;6.740;2022-12-18T05:43:18;-5.80;99.90
57833;DHT22;43667;53.036;6.740;2022-12-18T05:45:45;-5.80;99.90
57833;DHT22;43667;53.036;6.740;2022-12-18T05:48:10;-5.80;99.90
57833;DHT22;43667;53.036;6.740;2022-12-18T05:50:40;-5.80;99.90
57833;DHT22;43667;53.036;6.740;2022-12-18T05:53:06;-5.80;99.90
57833;DHT22;43667;53.036;6.740;2022-12-18T05:55:36;-5.90;99.90
57833;DHT22;43667;53.036;6.740;2022-12-18T05:58:03;-5.90;99.90
57833;DHT22;43667;53.036;6.740;2022-12-18T06:00:30;-5.90;99.90
57833;DHT22;43667;53.036;6.740;2022-12-18T06:02:55;-5.90;99.90
57833;DHT22;43667;53.036;6.740;2022-12-18T06:05:21;-5.90;99.90
57833;DHT22;43667;53.036;6.740;2022-12-18T06:07:47;-6.00;99.90
57833;DHT22;43667;53.036;6.740;2022-12-18T06:10:12;-6.00;99.90
57833;DHT22;43667;53.036;6.740;2022-12-18T06:12:38;-6.00;99.90
57833;DHT22;43667;53.036;6.740;2022-12-18T06:15:04;-6.00;99.90
57833;DHT22;43667;53.036;6.740;2022-12-18T06:17:30;-6.10;99.90
57833;DHT22;43667;53.036;6.740;2022-12-18T06:19:56;-6.00;99.90
57833;DHT22;43667;53.036;6.740;2022-12-18T06:22:22;-6.00;99.90
57833;DHT22;43667;53.036;6.740;2022-12-18T06:24:48;-6.00;99.90
57833;DHT22;43667;53.036;6.740;2022-12-18T06:27:14;-6.10;99.90
57833;DHT22;43667;53.036;6.740;2022-12-18T06:29:40;-6.10;99.90
57833;DHT22;43667;53.036;6.740;2022-12-18T06:32:05;-6.10;99.90
57833;DHT22;43667;53.036;6.740;2022-12-18T06:34:32;-6.20;99.90
57833;DHT22;43667;53.036;6.740;2022-12-18T06:36:58;-6.20;99.90
57833;DHT22;43667;53.036;6.740;2022-12-18T06:39:24;-6.20;99.90
57833;DHT22;43667;53.036;6.740;2022-12-18T06:41:49;-6.20;99.90
57833;DHT22;43667;53.036;6.740;2022-12-18T06:44:15;-6.30;99.90
57833;DHT22;43667;53.036;6.740;2022-12-18T06:46:41;-6.30;99.90
57833;DHT22;43667;53.036;6.740;2022-12-18T06:49:06;-6.30;99.90
57833;DHT22;43667;53.036;6.740;2022-12-18T06:51:34;-6.30;99.90
57833;DHT22;43667;53.036;6.740;2022-12-18T06:54:00;-6.40;99.90
57833;DHT22;43667;53.036;6.740;2022-12-18T06:56:26;-6.40;99.90
57833;DHT22;43667;53.036;6.740;2022-12-18T06:58:51;-6.40;99.90
57833;DHT22;43667;53.036;6.740;2022-12-18T07:01:17;-6.50;99.90
57833;DHT22;43667;53.036;6.740;2022-12-18T07:03:43;-6.50;99.90
57833;DHT22;43667;53.036;6.740;2022-12-18T07:06:27;-6.60;99.90
57833;DHT22;43667;53.036;6.740;2022-12-18T07:08:53;-6.60;99.90
57833;DHT22;43667;53.036;6.740;2022-12-18T07:11:19;-6.60;99.90
57833;DHT22;43667;53.036;6.740;2022-12-18T07:13:45;-6.60;99.90
57833;DHT22;43667;53.036;6.740;2022-12-18T07:16:16;-6.70;99.90
57833;DHT22;43667;53.036;6.740;2022-12-18T07:18:42;-6.70;99.90
57833;DHT22;43667;53.036;6.740;2022-12-18T07:21:11;-6.70;99.90
57833;DHT22;43667;53.036;6.740;2022-12-18T07:23:38;-6.70;99.90
57833;DHT22;43667;53.036;6.740;2022-12-18T07:26:06;-6.80;99.90
57833;DHT22;43667;53.036;6.740;2022-12-18T07:28:33;-6.80;99.90
57833;DHT22;43667;53.036;6.740;2022-12-18T07:31:03;-6.80;99.90
57833;DHT22;43667;53.036;6.740;2022-12-18T07:33:28;-6.80;99.90
57833;DHT22;43667;53.036;6.740;2022-12-18T07:35:54;-6.80;99.90
57833;DHT22;43667;53.036;6.740;2022-12-18T07:38:20;-6.80;99.90
57833;DHT22;43667;53.036;6.740;2022-12-18T07:40:46;-6.80;99.90
57833;DHT22;43667;53.036;6.740;2022-12-18T07:43:11;-6.80;99.90
57833;DHT22;43667;53.036;6.740;2022-12-18T07:45:37;-6.80;99.90
57833;DHT22;43667;53.036;6.740;2022-12-18T07:48:02;-6.80;99.90
57833;DHT22;43667;53.036;6.740;2022-12-18T07:50:28;-6.70;99.90
57833;DHT22;43667;53.036;6.740;2022-12-18T07:52:54;-6.70;99.90
57833;DHT22;43667;53.036;6.740;2022-12-18T07:55:19;-6.70;99.90
57833;DHT22;43667;53.036;6.740;2022-12-18T07:57:45;-6.70;99.90
57833;DHT22;43667;53.036;6.740;2022-12-18T08:00:11;-6.70;99.90
57833;DHT22;43667;53.036;6.740;2022-12-18T08:02:37;-6.70;99.90
57833;DHT22;43667;53.036;6.740;2022-12-18T08:05:03;-6.70;99.90
57833;DHT22;43667;53.036;6.740;2022-12-18T08:07:29;-6.70;99.90
57833;DHT22;43667;53.036;6.740;2022-12-18T08:09:54;-6.60;99.90
57833;DHT22;43667;53.036;6.740;2022-12-18T08:12:20;-6.60;99.90
57833;DHT22;43667;53.036;6.740;2022-12-18T08:14:45;-6.60;99.90
57833;DHT22;43667;53.036;6.740;2022-12-18T08:17:11;-6.50;99.90
57833;DHT22;43667;53.036;6.740;2022-12-18T08:19:36;-6.50;99.90
57833;DHT22;43667;53.036;6.740;2022-12-18T08:22:02;-6.40;99.90
57833;DHT22;43667;53.036;6.740;2022-12-18T08:24:28;-6.40;99.90
57833;DHT22;43667;53.036;6.740;2022-12-18T08:26:53;-6.30;99.90
57833;DHT22;43667;53.036;6.740;2022-12-18T08:29:19;-6.30;99.90
57833;DHT22;43667;53.036;6.740;2022-12-18T08:31:45;-6.30;99.90
57833;DHT22;43667;53.036;6.740;2022-12-18T08:34:10;-6.30;99.90
57833;DHT22;43667;53.036;6.740;2022-12-18T08:36:36;-6.20;99.90
57833;DHT22;43667;53.036;6.740;2022-12-18T08:39:01;-6.10;99.90
57833;DHT22;43667;53.036;6.740;2022-12-18T08:41:27;-6.10;99.90
57833;DHT22;43667;53.036;6.740;2022-12-18T08:43:53;-6.10;99.90
57833;DHT22;43667;53.036;6.740;2022-12-18T08:46:41;-6.00;99.90
57833;DHT22;43667;53.036;6.740;2022-12-18T08:49:08;-5.90;99.90
57833;DHT22;43667;53.036;6.740;2022-12-18T08:51:34;-5.90;99.90
57833;DHT22;43667;53.036;6.740;2022-12-18T08:54:02;-5.90;99.90
57833;DHT22;43667;53.036;6.740;2022-12-18T08:56:27;-5.90;99.90
57833;DHT22;43667;53.036;6.740;2022-12-18T08:58:54;-5.90;99.90
57833;DHT22;43667;53.036;6.740;2022-12-18T09:01:20;-5.80;99.90
57833;DHT22;43667;53.036;6.740;2022-12-18T09:03:46;-5.80;99.90
57833;DHT22;43667;53.036;6.740;2022-12-18T09:06:15;-5.70;99.90
57833;DHT22;43667;53.036;6.740;2022-12-18T09:08:41;-5.70;99.90
57833;DHT22;43667;53.036;6.740;2022-12-18T09:11:22;-5.60;99.90
57833;DHT22;43667;53.036;6.740;2022-12-18T09:13:48;-5.60;99.90
57833;DHT22;43667;53.036;6.740;2022-12-18T09:16:15;-5.50;99.90
57833;DHT22;43667;53.036;6.740;2022-12-18T09:18:40;-5.40;99.90
57833;DHT22;43667;53.036;6.740;2022-12-18T09:21:12;-5.40;99.90
57833;DHT22;43667;53.036;6.740;2022-12-18T09:23:37;-5.30;99.90
57833;DHT22;43667;53.036;6.740;2022-12-18T09:26:03;-5.30;99.90
57833;DHT22;43667;53.036;6.740;2022-12-18T09:28:29;-5.20;99.90
57833;DHT22;43667;53.036;6.740;2022-12-18T09:30:55;-5.20;99.90
57833;DHT22;43667;53.036;6.740;2022-12-18T09:33:20;-5.10;99.90
57833;DHT22;43667;53.036;6.740;2022-12-18T09:35:46;-5.10;99.90
57833;DHT22;43667;53.036;6.740;2022-12-18T09:38:14;-5.00;99.90
57833;DHT22;43667;53.036;6.740;2022-12-18T09:40:49;-4.90;99.90
57833;DHT22;43667;53.036;6.740;2022-12-18T09:43:32;-4.80;99.90
57833;DHT22;43667;53.036;6.740;2022-12-18T09:46:02;-4.70;99.90
57833;DHT22;43667;53.036;6.740;2022-12-18T09:48:32;-4.60;99.90
57833;DHT22;43667;53.036;6.740;2022-12-18T09:51:08;-4.50;99.90
57833;DHT22;43667;53.036;6.740;2022-12-18T09:53:38;-4.30;99.90
57833;DHT22;43667;53.036;6.740;2022-12-18T09:56:12;-4.30;99.90
57833;DHT22;43667;53.036;6.740;2022-12-18T09:59:15;-4.20;99.90
57833;DHT22;43667;53.036;6.740;2022-12-18T10:01:34;-4.10;99.90
57833;DHT22;43667;53.036;6.740;2022-12-18T10:04:00;-4.00;99.90
57833;DHT22;43667;53.036;6.740;2022-12-18T10:06:34;-4.00;99.90
57833;DHT22;43667;53.036;6.740;2022-12-18T10:20:16;-3.80;99.90
57833;DHT22;43667;53.036;6.740;2022-12-18T10:22:59;-3.80;99.90
57833;DHT22;43667;53.036;6.740;2022-12-18T10:28:18;-3.80;99.90
57833;DHT22;43667;53.036;6.740;2022-12-18T10:30:44;-3.70;99.90
57833;DHT22;43667;53.036;6.740;2022-12-18T10:33:16;-3.70;99.90
57833;DHT22;43667;53.036;6.740;2022-12-18T10:35:43;-3.70;99.90
57833;DHT22;43667;53.036;6.740;2022-12-18T10:43:29;-3.50;99.90
57833;DHT22;43667;53.036;6.740;2022-12-18T10:46:08;-3.50;99.90
57833;DHT22;43667;53.036;6.740;2022-12-18T10:51:39;-3.40;99.90
57833;DHT22;43667;53.036;6.740;2022-12-18T10:54:16;-3.40;99.90
57833;DHT22;43667;53.036;6.740;2022-12-18T10:56:43;-3.30;99.90
57833;DHT22;43667;53.036;6.740;2022-12-18T10:59:15;-3.30;99.90
57833;DHT22;43667;53.036;6.740;2022-12-18T11:01:53;-3.20;99.90
57833;DHT22;43667;53.036;6.740;2022-12-18T11:07:03;-3.00;99.90
57833;DHT22;43667;53.036;6.740;2022-12-18T11:09:36;-3.00;99.90
57833;DHT22;43667;53.036;6.740;2022-12-18T11:12:05;-2.90;99.90
57833;DHT22;43667;53.036;6.740;2022-12-18T11:17:18;-2.80;99.90
57833;DHT22;43667;53.036;6.740;2022-12-18T11:19:44;-2.70;99.90
57833;DHT22;43667;53.036;6.740;2022-12-18T11:22:31;-2.60;99.90
57833;DHT22;43667;53.036;6.740;2022-12-18T11:27:38;-2.50;99.90
57833;DHT22;43667;53.036;6.740;2022-12-18T11:37:58;-2.20;99.90
57833;DHT22;43667;53.036;6.740;2022-12-18T11:40:34;-2.20;99.90
57833;DHT22;43667;53.036;6.740;2022-12-18T11:43:16;-2.10;99.90
57833;DHT22;43667;53.036;6.740;2022-12-18T11:45:59;-2.10;99.90
57833;DHT22;43667;53.036;6.740;2022-12-18T11:51:00;-2.00;99.90
57833;DHT22;43667;53.036;6.740;2022-12-18T11:53:27;-1.90;99.90
57833;DHT22;43667;53.036;6.740;2022-12-18T12:23:53;-1.60;99.90
57833;DHT22;43667;53.036;6.740;2022-12-18T12:26:37;-1.50;99.90
57833;DHT22;43667;53.036;6.740;2022-12-18T12:32:07;-1.50;99.90
57833;DHT22;43667;53.036;6.740;2022-12-18T12:34:55;-1.40;99.90
57833;DHT22;43667;53.036;6.740;2022-12-18T12:39:54;-1.40;99.90
57833;DHT22;43667;53.036;6.740;2022-12-18T12:42:34;-1.30;99.90
57833;DHT22;43667;53.036;6.740;2022-12-18T12:45:28;-1.30;99.90
57833;DHT22;43667;53.036;6.740;2022-12-18T12:47:55;-1.20;99.90
57833;DHT22;43667;53.036;6.740;2022-12-18T12:50:21;-1.20;99.90
57833;DHT22;43667;53.036;6.740;2022-12-18T12:52:51;-1.20;99.90
57833;DHT22;43667;53.036;6.740;2022-12-18T12:55:27;-1.20;99.90
57833;DHT22;43667;53.036;6.740;2022-12-18T13:00:25;-1.10;99.90
57833;DHT22;43667;53.036;6.740;2022-12-18T13:05:49;-1.00;99.90
57833;DHT22;43667;53.036;6.740;2022-12-18T13:08:24;-1.00;99.90
57833;DHT22;43667;53.036;6.740;2022-12-18T13:10:51;-0.90;99.90
57833;DHT22;43667;53.036;6.740;2022-12-18T13:13:56;-0.90;99.90
57833;DHT22;43667;53.036;6.740;2022-12-18T13:16:23;-0.90;99.90
57833;DHT22;43667;53.036;6.740;2022-12-18T13:18:57;-0.90;99.90
57833;DHT22;43667;53.036;6.740;2022-12-18T13:21:27;-0.80;99.90
57833;DHT22;43667;53.036;6.740;2022-12-18T13:23:54;-0.80;99.90
57833;DHT22;43667;53.036;6.740;2022-12-18T13:28:54;-0.80;99.90
57833;DHT22;43667;53.036;6.740;2022-12-18T13:34:19;-0.80;99.90
57833;DHT22;43667;53.036;6.740;2022-12-18T13:36:45;-0.80;99.90
57833;DHT22;43667;53.036;6.740;2022-12-18T13:41:44;-0.80;99.90
57833;DHT22;43667;53.036;6.740;2022-12-18T13:44:24;-0.80;99.90
57833;DHT22;43667;53.036;6.740;2022-12-18T13:46:51;-0.80;99.90
57833;DHT22;43667;53.036;6.740;2022-12-18T13:49:25;-0.80;99.90
57833;DHT22;43667;53.036;6.740;2022-12-18T13:51:54;-0.80;99.90
57833;DHT22;43667;53.036;6.740;2022-12-18T13:54:39;-0.90;99.90
57833;DHT22;43667;53.036;6.740;2022-12-18T13:57:11;-0.80;99.90
57833;DHT22;43667;53.036;6.740;2022-12-18T13:59:50;-0.80;99.90
57833;DHT22;43667;53.036;6.740;2022-12-18T14:02:19;-0.80;99.90
57833;DHT22;43667;53.036;6.740;2022-12-18T14:04:46;-0.80;99.90
57833;DHT22;43667;53.036;6.740;2022-12-18T14:07:39;-0.80;99.90
57833;DHT22;43667;53.036;6.740;2022-12-18T14:10:12;-0.90;99.90
57833;DHT22;43667;53.036;6.740;2022-12-18T14:12:40;-0.90;99.90
57833;DHT22;43667;53.036;6.740;2022-12-18T14:17:53;-0.90;99.90
57833;DHT22;43667;53.036;6.740;2022-12-18T14:20:20;-0.90;99.90
57833;DHT22;43667;53.036;6.740;2022-12-18T14:22:47;-0.90;99.90
57833;DHT22;43667;53.036;6.740;2022-12-18T14:27:47;-1.00;99.90
57833;DHT22;43667;53.036;6.740;2022-12-18T14:30:43;-1.00;99.90
57833;DHT22;43667;53.036;6.740;2022-12-18T14:33:20;-1.00;99.90
57833;DHT22;43667;53.036;6.740;2022-12-18T14:36:05;-1.10;99.90
57833;DHT22;43667;53.036;6.740;2022-12-18T14:43:29;-1.10;99.90
57833;DHT22;43667;53.036;6.740;2022-12-18T14:45:56;-1.20;99.90
57833;DHT22;43667;53.036;6.740;2022-12-18T14:53:39;-1.20;99.90
57833;DHT22;43667;53.036;6.740;2022-12-18T14:56:21;-1.30;99.90
57833;DHT22;43667;53.036;6.740;2022-12-18T14:58:49;-1.30;99.90
57833;DHT22;43667;53.036;6.740;2022-12-18T15:01:27;-1.30;99.90
57833;DHT22;43667;53.036;6.740;2022-12-18T15:03:54;-1.30;99.90
57833;DHT22;43667;53.036;6.740;2022-12-18T15:06:30;-1.30;99.90
57833;DHT22;43667;53.036;6.740;2022-12-18T15:08:58;-1.40;99.90
57833;DHT22;43667;53.036;6.740;2022-12-18T15:11:36;-1.40;99.90
57833;DHT22;43667;53.036;6.740;2022-12-18T15:14:32;-1.40;99.90
57833;DHT22;43667;53.036;6.740;2022-12-18T15:16:59;-1.50;99.90
57833;DHT22;43667;53.036;6.740;2022-12-18T15:19:40;-1.50;99.90
57833;DHT22;43667;53.036;6.740;2022-12-18T15:22:21;-1.50;99.90
57833;DHT22;43667;53.036;6.740;2022-12-18T15:24:49;-1.50;99.90
57833;DHT22;43667;53.036;6.740;2022-12-18T15:27:30;-1.60;99.90
57833;DHT22;43667;53.036;6.740;2022-12-18T15:32:34;-1.60;99.90
57833;DHT22;43667;53.036;6.740;2022-12-18T15:35:23;-1.60;99.90
57833;DHT22;43667;53.036;6.740;2022-12-18T15:37:51;-1.60;99.90
57833;DHT22;43667;53.036;6.740;2022-12-18T15:40:20;-1.70;99.90
57833;DHT22;43667;53.036;6.740;2022-12-18T15:42:47;-1.70;99.90
57833;DHT22;43667;53.036;6.740;2022-12-18T15:45:31;-1.70;99.90
57833;DHT22;43667;53.036;6.740;2022-12-18T15:47:57;-1.70;99.90
57833;DHT22;43667;53.036;6.740;2022-12-18T15:50:23;-1.70;99.90
57833;DHT22;43667;53.036;6.740;2022-12-18T15:52:51;-1.70;99.90
57833;DHT22;43667;53.036;6.740;2022-12-18T15:55:20;-1.70;99.90
57833;DHT22;43667;53.036;6.740;2022-12-18T15:58:06;-1.70;99.90
57833;DHT22;43667;53.036;6.740;2022-12-18T16:00:33;-1.70;99.90
57833;DHT22;43667;53.036;6.740;2022-12-18T16:02:59;-1.70;99.90
57833;DHT22;43667;53.036;6.740;2022-12-18T16:05:26;-1.70;99.90
57833;DHT22;43667;53.036;6.740;2022-12-18T16:07:52;-1.70;99.90
57833;DHT22;43667;53.036;6.740;2022-12-18T16:10:18;-1.70;99.90
57833;DHT22;43667;53.036;6.740;2022-12-18T16:12:43;-1.70;99.90
57833;DHT22;43667;53.036;6.740;2022-12-18T16:15:12;-1.70;99.90
57833;DHT22;43667;53.036;6.740;2022-12-18T16:17:39;-1.70;99.90
57833;DHT22;43667;53.036;6.740;2022-12-18T16:20:07;-1.70;99.90
57833;DHT22;43667;53.036;6.740;2022-12-18T16:22:36;-1.70;99.90
57833;DHT22;43667;53.036;6.740;2022-12-18T16:25:02;-1.70;99.90
57833;DHT22;43667;53.036;6.740;2022-12-18T16:27:28;-1.70;99.90
57833;DHT22;43667;53.036;6.740;2022-12-18T16:29:53;-1.70;99.90
57833;DHT22;43667;53.036;6.740;2022-12-18T16:32:21;-1.70;99.90
57833;DHT22;43667;53.036;6.740;2022-12-18T16:34:47;-1.70;99.90
57833;DHT22;43667;53.036;6.740;2022-12-18T16:37:14;-1.70;99.90
57833;DHT22;43667;53.036;6.740;2022-12-18T16:39:41;-1.60;99.90
57833;DHT22;43667;53.036;6.740;2022-12-18T16:42:17;-1.60;99.90
57833;DHT22;43667;53.036;6.740;2022-12-18T16:44:45;-1.60;99.90
57833;DHT22;43667;53.036;6.740;2022-12-18T16:47:11;-1.60;99.90
57833;DHT22;43667;53.036;6.740;2022-12-18T16:49:36;-1.60;99.90
57833;DHT22;43667;53.036;6.740;2022-12-18T16:52:03;-1.60;99.90
57833;DHT22;43667;53.036;6.740;2022-12-18T16:54:29;-1.60;99.90
57833;DHT22;43667;53.036;6.740;2022-12-18T16:56:55;-1.50;99.90
57833;DHT22;43667;53.036;6.740;2022-12-18T16:59:21;-1.50;99.90
57833;DHT22;43667;53.036;6.740;2022-12-18T17:01:47;-1.50;99.90
57833;DHT22;43667;53.036;6.740;2022-12-18T17:04:13;-1.50;99.90
57833;DHT22;43667;53.036;6.740;2022-12-18T17:06:43;-1.50;99.90
57833;DHT22;43667;53.036;6.740;2022-12-18T17:09:12;-1.50;99.90
57833;DHT22;43667;53.036;6.740;2022-12-18T17:11:39;-1.50;99.90
57833;DHT22;43667;53.036;6.740;2022-12-18T17:14:11;-1.50;99.90
57833;DHT22;43667;53.036;6.740;2022-12-18T17:16:37;-1.50;99.90
57833;DHT22;43667;53.036;6.740;2022-12-18T17:19:03;-1.50;99.90
57833;DHT22;43667;53.036;6.740;2022-12-18T17:21:29;-1.50;99.90
57833;DHT22;43667;53.036;6.740;2022-12-18T17:23:55;-1.50;99.90
57833;DHT22;43667;53.036;6.740;2022-12-18T17:26:23;-1.50;99.90
57833;DHT22;43667;53.036;6.740;2022-12-18T17:28:49;-1.50;99.90
57833;DHT22;43667;53.036;6.740;2022-12-18T17:31:20;-1.40;99.90
57833;DHT22;43667;53.036;6.740;2022-12-18T17:33:47;-1.40;99.90
57833;DHT22;43667;53.036;6.740;2022-12-18T17:36:13;-1.40;99.90
57833;DHT22;43667;53.036;6.740;2022-12-18T17:38:39;-1.40;99.90
57833;DHT22;43667;53.036;6.740;2022-12-18T17:41:07;-1.40;99.90
57833;DHT22;43667;53.036;6.740;2022-12-18T17:43:33;-1.40;99.90
57833;DHT22;43667;53.036;6.740;2022-12-18T17:46:05;-1.40;99.90
57833;DHT22;43667;53.036;6.740;2022-12-18T17:48:32;-1.40;99.90
57833;DHT22;43667;53.036;6.740;2022-12-18T17:51:03;-1.40;99.90
57833;DHT22;43667;53.036;6.740;2022-12-18T17:53:30;-1.40;99.90